Time;durP1;ratioP1;P1;durP2;ratioP2;P2;SDS_P1;SDS_P2;PMS_P1;PMS_P2;Temp;Humidity;BMP_temperature;BMP_pressure;BME280_temperature;BME280_humidity;BME280_pressure;Samples;Min_cycle;Max_cycle;Signal;HPM_P1;HPM_P2
2023/01/05 00:01:42;;;;;;;3.73;1.00;;;12.20;84.40;;;;;;5039084;28;20524;-65
2023/01/05 00:04:11;;;;;;;4.70;0.93;;;12.20;84.30;;;;;;5039118;28;20487;-65
2023/01/05 00:06:39;;;;;;;3.40;1.03;;;12.20;84.40;;;;;;5039084;28;20463;-67
2023/01/05 00:09:12;;;;;;;3.10;1.40;;;12.20;84.40;;;;;;5038933;28;20471;-66
2023/01/05 00:22:50;;;;;;;2.70;0.70;;;12.20;84.60;;;;;;5043016;28;20471;-65
2023/01/05 00:25:21;;;;;;;2.87;0.60;;;12.20;84.60;;;;;;5044171;28;20537;-66
2023/01/05 00:27:52;;;;;;;2.70;0.60;;;12.10;84.80;;;;;;5043177;28;20494;-66
2023/01/05 00:30:22;;;;;;;3.00;0.90;;;12.10;84.80;;;;;;5040600;28;20481;-66
2023/01/05 00:32:50;;;;;;;3.63;0.80;;;12.10;84.80;;;;;;5044293;28;21057;-63
2023/01/05 00:35:19;;;;;;;3.10;0.90;;;12.20;84.80;;;;;;5044255;28;20487;-66
2023/01/05 00:37:48;;;;;;;3.10;0.60;;;12.20;84.80;;;;;;5058441;28;20459;-64
2023/01/05 00:40:18;;;;;;;3.63;0.80;;;12.20;84.80;;;;;;5043784;28;20910;-65
2023/01/05 00:42:47;;;;;;;3.30;0.60;;;12.20;84.90;;;;;;5043659;28;21029;-65
2023/01/05 00:45:16;;;;;;;2.73;0.67;;;12.20;84.80;;;;;;5042043;28;20479;-64
2023/01/05 00:47:44;;;;;;;2.70;0.60;;;12.20;84.90;;;;;;5044318;28;20581;-65
2023/01/05 00:50:14;;;;;;;2.80;0.60;;;12.20;85.00;;;;;;5043872;28;20486;-64
2023/01/05 00:52:43;;;;;;;3.70;0.60;;;12.20;85.10;;;;;;5056285;28;20470;-65
2023/01/05 00:55:11;;;;;;;2.50;0.50;;;12.20;85.20;;;;;;5058733;28;21076;-65
2023/01/05 00:57:39;;;;;;;2.80;0.80;;;12.20;85.10;;;;;;5040565;28;20470;-65
2023/01/05 01:00:14;;;;;;;2.60;0.63;;;12.30;85.10;;;;;;5058108;28;20520;-65
2023/01/05 01:02:43;;;;;;;2.70;0.60;;;12.30;85.20;;;;;;5041691;28;20466;-64
2023/01/05 01:05:11;;;;;;;2.80;0.60;;;12.30;85.20;;;;;;5056840;28;20850;-65
2023/01/05 01:07:39;;;;;;;2.60;0.70;;;12.30;85.20;;;;;;5041213;28;21049;-65
2023/01/05 01:10:08;;;;;;;2.67;0.50;;;12.30;85.20;;;;;;5042597;28;20897;-65
2023/01/05 01:12:36;;;;;;;2.70;0.50;;;12.30;85.30;;;;;;5040361;28;21141;-67
2023/01/05 01:15:05;;;;;;;2.93;0.50;;;12.30;85.30;;;;;;5041385;28;20492;-64
2023/01/05 01:17:34;;;;;;;5.03;0.70;;;12.30;85.30;;;;;;5035442;28;20459;-66
2023/01/05 01:20:02;;;;;;;2.77;0.67;;;12.30;85.50;;;;;;5039017;28;20459;-65
2023/01/05 01:22:30;;;;;;;3.93;0.73;;;12.30;85.50;;;;;;5040273;28;20458;-64
2023/01/05 01:25:00;;;;;;;2.83;0.50;;;12.30;85.50;;;;;;5042741;28;20612;-67
2023/01/05 01:27:30;;;;;;;3.00;0.70;;;12.30;85.50;;;;;;5045245;28;21108;-66
2023/01/05 01:29:57;;;;;;;3.30;0.70;;;12.30;85.40;;;;;;5040693;28;21020;-66
2023/01/05 01:32:25;;;;;;;2.83;0.70;;;12.30;85.40;;;;;;5041803;28;20458;-63
2023/01/05 01:34:55;;;;;;;2.70;0.50;;;12.40;85.50;;;;;;5042812;28;20483;-66
2023/01/05 01:37:23;;;;;;;3.53;0.70;;;12.40;85.50;;;;;;5041015;28;20451;-66
2023/01/05 01:39:53;;;;;;;3.87;0.90;;;12.40;85.50;;;;;;5039554;28;20465;-64
2023/01/05 01:42:21;;;;;;;3.37;0.90;;;12.40;85.50;;;;;;5041034;28;20448;-64
2023/01/05 01:44:55;;;;;;;2.60;0.60;;;12.40;85.60;;;;;;5056350;28;20486;-66
2023/01/05 01:47:35;;;;;;;3.07;0.70;;;12.50;85.50;;;;;;5055299;28;21023;-66
2023/01/05 01:50:09;;;;;;;3.33;0.60;;;12.50;85.40;;;;;;5042393;28;20447;-65
2023/01/05 01:52:40;;;;;;;3.23;0.77;;;12.40;85.40;;;;;;5040037;28;21019;-65
2023/01/05 01:55:10;;;;;;;3.00;0.70;;;12.50;85.50;;;;;;5057546;28;20569;-65
2023/01/05 01:57:39;;;;;;;2.80;0.70;;;12.40;85.50;;;;;;5041071;28;20467;-65
2023/01/05 02:00:13;;;;;;;2.60;0.60;;;12.40;85.60;;;;;;5040931;28;20455;-66
2023/01/05 02:02:52;;;;;;;2.40;0.53;;;12.50;85.50;;;;;;5039438;28;20466;-65
2023/01/05 02:05:29;;;;;;;2.60;0.50;;;12.50;85.50;;;;;;5042106;28;20570;-66
2023/01/05 02:07:57;;;;;;;2.40;0.40;;;12.60;85.40;;;;;;5041001;28;20466;-65
2023/01/05 02:10:41;;;;;;;2.80;0.70;;;12.50;85.50;;;;;;5060138;28;20497;-65
2023/01/05 02:13:23;;;;;;;2.60;0.70;;;12.60;85.50;;;;;;5058409;28;20536;-65
2023/01/05 02:16:07;;;;;;;2.77;0.53;;;12.50;85.50;;;;;;5057584;28;20459;-66
2023/01/05 02:18:53;;;;;;;2.50;0.53;;;12.60;85.60;;;;;;5041101;28;20869;-65
2023/01/05 02:21:29;;;;;;;2.40;0.47;;;12.60;85.50;;;;;;5040738;28;20439;-65
2023/01/05 02:24:43;;;;;;;2.60;0.50;;;12.60;85.50;;;;;;5038503;28;20585;-65
2023/01/05 02:27:37;;;;;;;2.87;0.80;;;12.60;85.40;;;;;;4991375;28;20480;-65
2023/01/05 02:30:52;;;;;;;3.27;0.77;;;12.60;85.30;;;;;;4992521;28;20496;-66
2023/01/05 02:33:28;;;;;;;2.50;0.60;;;12.60;85.30;;;;;;5039854;28;20528;-66
2023/01/05 02:36:02;;;;;;;2.70;0.60;;;12.60;85.40;;;;;;5055396;28;20473;-66
2023/01/05 02:38:37;;;;;;;3.53;0.53;;;12.60;85.50;;;;;;5041107;28;21088;-65
2023/01/05 02:41:12;;;;;;;2.53;0.57;;;12.60;85.50;;;;;;5039126;28;20549;-65
2023/01/05 02:43:43;;;;;;;2.40;0.50;;;12.60;85.50;;;;;;5054146;28;20487;-65
2023/01/05 02:46:11;;;;;;;2.70;0.70;;;12.60;85.50;;;;;;5042046;28;20858;-65
2023/01/05 02:48:42;;;;;;;2.60;0.60;;;12.60;85.40;;;;;;5056374;28;20550;-64
2023/01/05 02:51:15;;;;;;;2.90;0.60;;;12.60;85.30;;;;;;5039208;28;20460;-65
2023/01/05 02:53:47;;;;;;;2.80;0.70;;;12.60;85.60;;;;;;5038649;28;20483;-66
2023/01/05 02:56:22;;;;;;;2.90;0.93;;;12.60;85.50;;;;;;5056758;28;20562;-65
2023/01/05 02:58:54;;;;;;;2.77;0.60;;;12.60;85.70;;;;;;5057096;28;20538;-65
2023/01/05 03:01:26;;;;;;;2.77;0.80;;;12.60;85.70;;;;;;5037449;28;20844;-65
2023/01/05 03:03:58;;;;;;;2.70;0.60;;;12.60;85.70;;;;;;5037570;28;21026;-65
2023/01/05 03:06:32;;;;;;;2.67;0.70;;;12.60;85.80;;;;;;5055249;28;20463;-65
2023/01/05 03:09:04;;;;;;;2.60;0.60;;;12.60;85.60;;;;;;5053767;28;21132;-66
2023/01/05 03:14:28;;;;;;;2.63;0.70;;;12.60;85.60;;;;;;5039710;28;20946;-65
2023/01/05 03:16:58;;;;;;;2.90;0.80;;;12.60;85.60;;;;;;5041557;28;21220;-65
2023/01/05 03:19:38;;;;;;;2.60;0.80;;;12.60;85.70;;;;;;5039327;28;21012;-65
2023/01/05 03:36:28;;;;;;;3.83;1.03;;;12.50;85.90;;;;;;5054866;28;20455;-65
2023/01/05 03:39:01;;;;;;;4.67;0.80;;;12.50;85.70;;;;;;5052620;28;20451;-64
2023/01/05 03:41:33;;;;;;;2.83;0.73;;;12.50;85.80;;;;;;5039519;28;20471;-65
2023/01/05 03:44:01;;;;;;;4.27;1.00;;;12.50;85.60;;;;;;5038810;28;20499;-65
2023/01/05 03:46:33;;;;;;;4.83;0.90;;;12.50;85.80;;;;;;5042480;28;20483;-66
2023/01/05 03:49:01;;;;;;;5.27;0.77;;;12.50;85.80;;;;;;5042359;28;20486;-66
2023/01/05 03:51:30;;;;;;;4.50;0.80;;;12.50;85.90;;;;;;5059072;28;20569;-65
2023/01/05 03:54:06;;;;;;;5.10;0.80;;;12.50;85.80;;;;;;5039599;28;20475;-65
2023/01/05 03:56:36;;;;;;;5.20;1.00;;;12.40;85.90;;;;;;5058133;28;20565;-66
2023/01/05 03:59:05;;;;;;;5.70;1.13;;;12.40;85.90;;;;;;5066263;28;20462;-66
2023/01/05 04:01:33;;;;;;;7.87;0.90;;;12.50;85.90;;;;;;5057907;28;20850;-66
2023/01/05 04:04:01;;;;;;;4.97;0.87;;;12.50;85.70;;;;;;5058178;28;20487;-65
2023/01/05 04:06:31;;;;;;;7.17;1.27;;;12.50;85.70;;;;;;5042554;28;20447;-66
2023/01/05 04:08:59;;;;;;;8.47;1.20;;;12.50;85.70;;;;;;5042235;28;20482;-65
2023/01/05 04:11:27;;;;;;;4.60;1.30;;;12.50;85.50;;;;;;5063778;28;20462;-66
2023/01/05 04:14:00;;;;;;;10.13;1.40;;;12.50;85.50;;;;;;5039403;28;21050;-66
2023/01/05 04:16:28;;;;;;;5.57;0.97;;;12.50;85.30;;;;;;5057642;28;20469;-65
2023/01/05 04:19:00;;;;;;;8.10;1.30;;;12.50;85.30;;;;;;5059030;28;20972;-66
2023/01/05 04:21:28;;;;;;;8.53;1.67;;;12.40;85.30;;;;;;5040309;28;20459;-64
2023/01/05 04:23:59;;;;;;;9.60;1.63;;;12.40;85.30;;;;;;5064883;28;20480;-65
2023/01/05 04:26:28;;;;;;;7.63;1.30;;;12.40;85.20;;;;;;5058932;28;21271;-66
2023/01/05 04:28:56;;;;;;;8.83;1.80;;;12.50;85.00;;;;;;5044164;28;20494;-66
2023/01/05 04:31:25;;;;;;;14.30;2.00;;;12.40;84.80;;;;;;5057379;28;20454;-65
2023/01/05 04:33:56;;;;;;;7.93;1.40;;;12.40;85.00;;;;;;5043553;28;20481;-65
2023/01/05 04:36:25;;;;;;;11.50;1.77;;;12.40;85.20;;;;;;5057231;28;20546;-65
2023/01/05 04:38:55;;;;;;;10.30;1.70;;;12.40;85.00;;;;;;5042565;28;20534;-65
2023/01/05 04:41:25;;;;;;;10.50;2.17;;;12.40;84.80;;;;;;5056793;28;20970;-65
2023/01/05 04:43:54;;;;;;;10.07;2.30;;;12.40;84.70;;;;;;5062189;28;20478;-65
2023/01/05 04:46:23;;;;;;;8.30;1.83;;;12.40;84.70;;;;;;5058151;28;20466;-65
2023/01/05 04:48:53;;;;;;;11.50;1.83;;;12.40;84.60;;;;;;5042027;28;20470;-66
2023/01/05 04:51:22;;;;;;;9.90;2.37;;;12.40;84.60;;;;;;5058258;28;20565;-65
2023/01/05 04:53:50;;;;;;;10.43;2.00;;;12.40;84.20;;;;;;5063392;28;20510;-65
2023/01/05 04:56:21;;;;;;;11.53;1.70;;;12.30;84.30;;;;;;5058687;28;20451;-65
2023/01/05 04:58:51;;;;;;;6.77;1.90;;;12.30;84.40;;;;;;5043022;28;20459;-64
2023/01/05 05:01:19;;;;;;;11.53;2.00;;;12.30;84.20;;;;;;5056543;28;20443;-65
2023/01/05 05:03:51;;;;;;;13.30;3.10;;;12.40;84.00;;;;;;5056050;28;20474;-65
2023/01/05 05:06:22;;;;;;;8.73;1.50;;;12.30;83.70;;;;;;5056696;28;21130;-64
2023/01/05 05:08:51;;;;;;;9.30;2.30;;;12.30;83.70;;;;;;5040603;28;20502;-65
2023/01/05 05:11:20;;;;;;;15.07;2.30;;;12.30;83.80;;;;;;5058463;28;20484;-65
2023/01/05 05:13:50;;;;;;;24.53;3.10;;;12.20;83.70;;;;;;5041029;28;20556;-65
2023/01/05 05:16:18;;;;;;;9.67;2.03;;;12.30;83.50;;;;;;5059139;28;20463;-66
2023/01/05 05:18:48;;;;;;;12.23;1.97;;;12.20;83.40;;;;;;5042187;28;20490;-66
2023/01/05 05:21:21;;;;;;;11.80;1.50;;;12.20;83.40;;;;;;5058652;28;20447;-66
2023/01/05 05:23:49;;;;;;;17.20;2.53;;;12.20;83.30;;;;;;5057009;28;20495;-66
2023/01/05 05:26:17;;;;;;;11.47;2.33;;;12.20;83.10;;;;;;5064844;28;20510;-66
2023/01/05 05:28:47;;;;;;;11.77;2.23;;;12.20;82.90;;;;;;5057837;28;20495;-65
2023/01/05 05:31:16;;;;;;;15.47;2.73;;;12.20;82.80;;;;;;5043472;28;20472;-65
2023/01/05 05:33:44;;;;;;;11.87;2.57;;;12.20;82.40;;;;;;5040985;28;20520;-65
2023/01/05 05:36:12;;;;;;;12.10;2.27;;;12.20;82.30;;;;;;5042260;28;20538;-65
2023/01/05 05:38:40;;;;;;;10.23;2.40;;;12.20;82.30;;;;;;5041418;28;20975;-64
2023/01/05 05:41:08;;;;;;;14.90;2.70;;;12.20;82.10;;;;;;5044109;28;20447;-64
2023/01/05 05:43:36;;;;;;;11.53;2.40;;;12.20;81.80;;;;;;5041939;28;20467;-65
2023/01/05 05:46:04;;;;;;;15.20;3.30;;;12.20;81.30;;;;;;5040601;28;20869;-65
2023/01/05 05:48:33;;;;;;;13.43;2.17;;;12.20;81.40;;;;;;5042908;28;20493;-65
2023/01/05 05:51:01;;;;;;;11.67;2.50;;;12.10;80.80;;;;;;5041473;28;20525;-65
2023/01/05 05:53:29;;;;;;;13.77;2.60;;;12.10;81.20;;;;;;5042086;28;20511;-66
2023/01/05 05:55:57;;;;;;;10.77;2.10;;;12.10;81.10;;;;;;5043254;28;20512;-66
2023/01/05 05:58:25;;;;;;;8.30;1.83;;;12.10;80.80;;;;;;5043109;28;20485;-66
2023/01/05 06:00:57;;;;;;;9.33;1.80;;;12.10;80.70;;;;;;5039611;28;20948;-66
2023/01/05 06:03:25;;;;;;;8.87;2.00;;;12.10;80.30;;;;;;5039470;28;21290;-65
2023/01/05 06:05:54;;;;;;;9.77;2.13;;;12.10;80.20;;;;;;5040750;28;20499;-66
2023/01/05 06:08:22;;;;;;;11.50;2.13;;;12.10;80.00;;;;;;5042303;28;20467;-65
2023/01/05 06:10:51;;;;;;;8.97;1.70;;;12.10;79.90;;;;;;5041537;28;20517;-66
2023/01/05 06:13:19;;;;;;;14.73;2.77;;;12.10;79.50;;;;;;5042059;28;20459;-65
2023/01/05 06:15:47;;;;;;;8.30;1.70;;;12.10;79.30;;;;;;5039869;28;20995;-66
2023/01/05 06:18:15;;;;;;;8.33;1.90;;;12.10;79.30;;;;;;5041530;28;20878;-63
2023/01/05 06:20:43;;;;;;;18.47;2.73;;;12.00;79.30;;;;;;5040383;28;20482;-64
2023/01/05 06:23:12;;;;;;;15.70;2.60;;;12.00;79.20;;;;;;5042345;28;21187;-64
2023/01/05 06:25:41;;;;;;;18.43;2.83;;;12.00;79.20;;;;;;5042913;28;20532;-66
2023/01/05 06:28:08;;;;;;;10.83;2.40;;;12.00;79.00;;;;;;5041775;28;20471;-64
2023/01/05 06:30:36;;;;;;;15.40;2.80;;;12.10;78.80;;;;;;5042669;28;20474;-64
2023/01/05 06:33:04;;;;;;;11.70;2.43;;;12.10;78.40;;;;;;5042137;28;21219;-66
2023/01/05 06:35:32;;;;;;;12.30;2.50;;;12.00;78.60;;;;;;5041424;28;20479;-66
2023/01/05 06:38:00;;;;;;;17.33;2.40;;;12.00;78.30;;;;;;5042773;28;20459;-66
2023/01/05 06:40:29;;;;;;;11.57;2.87;;;12.00;78.30;;;;;;5042089;28;20509;-66
2023/01/05 06:42:57;;;;;;;10.70;2.63;;;12.00;78.40;;;;;;5041632;28;20463;-66
2023/01/05 06:45:25;;;;;;;10.30;2.60;;;12.00;78.10;;;;;;5042335;28;20487;-65
2023/01/05 06:47:53;;;;;;;9.10;1.60;;;12.00;78.20;;;;;;5041177;28;20469;-65
2023/01/05 06:50:21;;;;;;;15.60;2.40;;;12.00;78.30;;;;;;5039826;28;20508;-66
2023/01/05 06:52:49;;;;;;;9.07;2.93;;;11.90;78.20;;;;;;5039117;28;20513;-65
2023/01/05 06:55:16;;;;;;;8.77;2.00;;;11.90;78.30;;;;;;5039776;28;20487;-66
2023/01/05 06:57:46;;;;;;;11.57;2.10;;;11.90;78.30;;;;;;5040010;28;20513;-67
2023/01/05 07:00:15;;;;;;;15.50;2.53;;;11.90;78.20;;;;;;5040372;28;20489;-63
2023/01/05 07:02:43;;;;;;;11.70;2.43;;;11.90;78.20;;;;;;5039366;28;20459;-64
2023/01/05 07:05:11;;;;;;;8.27;2.30;;;11.90;78.30;;;;;;5041582;28;20545;-65
2023/01/05 07:07:39;;;;;;;24.73;4.20;;;11.90;78.20;;;;;;5038861;28;20536;-66
2023/01/05 07:10:07;;;;;;;8.67;1.90;;;11.90;78.20;;;;;;5039670;28;20516;-65
2023/01/05 07:12:35;;;;;;;12.17;2.20;;;11.90;78.20;;;;;;5040505;28;20479;-65
2023/01/05 07:15:06;;;;;;;11.13;2.60;;;11.90;78.20;;;;;;5040032;28;20482;-66
2023/01/05 07:17:35;;;;;;;10.90;1.80;;;11.80;78.20;;;;;;5041448;28;20509;-65
2023/01/05 07:20:03;;;;;;;14.33;2.63;;;11.90;78.10;;;;;;5042872;28;20462;-64
2023/01/05 07:22:31;;;;;;;12.57;2.20;;;11.80;78.20;;;;;;5047900;28;21039;-64
2023/01/05 07:24:59;;;;;;;13.20;2.93;;;11.80;78.30;;;;;;5047076;28;20557;-65
2023/01/05 07:27:27;;;;;;;9.90;2.30;;;11.70;78.30;;;;;;5046485;28;20508;-65
2023/01/05 07:29:55;;;;;;;9.90;2.23;;;11.70;78.30;;;;;;5043976;28;20451;-65
2023/01/05 07:32:25;;;;;;;8.80;2.27;;;11.70;78.30;;;;;;5044381;28;20533;-65
2023/01/05 07:34:53;;;;;;;10.50;2.30;;;11.80;78.30;;;;;;5046754;28;20518;-65
2023/01/05 07:37:24;;;;;;;13.37;2.80;;;11.70;78.20;;;;;;5048426;28;20501;-64
2023/01/05 07:39:52;;;;;;;15.17;3.00;;;11.80;78.20;;;;;;5047993;28;21069;-65
2023/01/05 07:42:20;;;;;;;12.57;2.60;;;11.70;78.20;;;;;;5047439;28;20540;-65
2023/01/05 07:44:49;;;;;;;14.00;2.63;;;11.70;78.10;;;;;;5045835;28;20493;-65
2023/01/05 07:47:17;;;;;;;14.17;3.00;;;11.70;78.20;;;;;;5047372;28;20455;-65
2023/01/05 07:49:46;;;;;;;12.03;1.73;;;11.70;78.10;;;;;;5049207;28;20500;-65
2023/01/05 07:52:14;;;;;;;10.90;1.67;;;11.70;78.00;;;;;;5047791;28;20487;-66
2023/01/05 07:54:42;;;;;;;18.27;1.93;;;11.70;78.00;;;;;;5048634;28;20891;-65
2023/01/05 07:57:10;;;;;;;12.60;2.40;;;11.70;78.00;;;;;;5046387;28;21132;-64
2023/01/05 07:59:38;;;;;;;15.53;2.30;;;11.70;78.00;;;;;;5044497;28;20519;-65
2023/01/05 08:02:06;;;;;;;15.10;2.40;;;11.70;77.90;;;;;;5043184;28;20459;-66
2023/01/05 08:04:34;;;;;;;7.40;2.30;;;11.70;77.90;;;;;;5048502;28;20539;-66
2023/01/05 08:07:08;;;;;;;16.67;2.20;;;11.70;77.90;;;;;;5048491;28;20463;-66
2023/01/05 08:12:22;;;;;;;15.67;2.57;;;11.70;77.90;;;;;;5049179;28;21205;-65
2023/01/05 08:14:50;;;;;;;8.60;1.90;;;11.70;77.80;;;;;;5048534;28;21071;-64
2023/01/05 08:17:18;;;;;;;6.40;1.67;;;11.70;77.90;;;;;;5046021;28;21165;-65
2023/01/05 08:19:46;;;;;;;9.90;1.97;;;11.70;78.00;;;;;;5048749;28;20811;-65
2023/01/05 08:22:15;;;;;;;9.70;1.90;;;11.70;77.90;;;;;;5047185;28;21200;-65
2023/01/05 08:24:43;;;;;;;15.67;3.53;;;11.70;78.00;;;;;;5046335;28;20474;-65
2023/01/05 08:27:11;;;;;;;15.07;2.37;;;11.70;77.90;;;;;;5046462;28;20462;-64
2023/01/05 08:29:39;;;;;;;14.33;1.97;;;11.70;77.90;;;;;;5046849;28;20463;-65
2023/01/05 08:32:07;;;;;;;9.07;1.80;;;11.70;77.90;;;;;;5045166;28;20483;-65
2023/01/05 08:34:35;;;;;;;6.63;1.63;;;11.70;77.90;;;;;;5044215;28;20478;-66
2023/01/05 08:37:03;;;;;;;10.87;2.03;;;11.70;78.00;;;;;;5043762;28;20487;-65
2023/01/05 08:39:34;;;;;;;12.27;2.07;;;11.80;77.90;;;;;;5044098;28;21048;-65
2023/01/05 08:42:02;;;;;;;8.30;2.07;;;11.80;77.90;;;;;;5046402;28;20481;-64
2023/01/05 08:44:30;;;;;;;8.17;1.70;;;11.80;77.90;;;;;;5044696;28;20479;-65
2023/01/05 08:46:58;;;;;;;12.23;1.90;;;11.80;78.00;;;;;;5045574;28;20532;-65
2023/01/05 08:49:26;;;;;;;13.97;2.40;;;11.80;78.00;;;;;;5042576;28;20463;-65
2023/01/05 08:51:54;;;;;;;12.10;2.07;;;11.90;78.00;;;;;;5044745;28;20517;-65
2023/01/05 08:54:21;;;;;;;8.13;1.80;;;11.90;78.00;;;;;;5045135;28;20991;-64
2023/01/05 08:56:51;;;;;;;10.23;2.77;;;11.90;78.10;;;;;;5044456;28;20471;-65
2023/01/05 08:59:19;;;;;;;8.30;1.57;;;11.90;78.00;;;;;;5045302;28;21324;-65
2023/01/05 09:01:47;;;;;;;16.30;2.80;;;11.90;78.00;;;;;;5043389;28;20455;-65
2023/01/05 09:04:15;;;;;;;10.20;2.07;;;11.90;77.90;;;;;;5044753;28;20474;-65
2023/01/05 09:06:43;;;;;;;10.33;2.07;;;11.90;78.00;;;;;;5043612;28;20561;-65
2023/01/05 09:09:11;;;;;;;16.80;1.87;;;11.90;78.10;;;;;;5045223;28;20447;-66
2023/01/05 09:11:39;;;;;;;11.20;2.40;;;11.90;78.10;;;;;;5042800;28;20471;-65
2023/01/05 09:14:13;;;;;;;8.70;2.27;;;11.90;78.00;;;;;;5043090;28;20491;-65
2023/01/05 09:16:41;;;;;;;11.33;2.07;;;11.90;78.00;;;;;;5042462;28;20466;-66
2023/01/05 09:19:29;;;;;;;13.73;2.03;;;11.90;78.10;;;;;;5042521;28;20565;-65
2023/01/05 09:21:56;;;;;;;13.40;3.20;;;11.90;78.10;;;;;;5043735;28;20809;-64
2023/01/05 09:24:25;;;;;;;7.93;1.60;;;12.00;78.20;;;;;;5040670;28;20516;-65
2023/01/05 09:26:53;;;;;;;8.03;1.67;;;12.00;78.10;;;;;;5044250;28;20824;-66
2023/01/05 09:29:22;;;;;;;7.43;1.63;;;12.00;78.10;;;;;;5043162;28;20467;-65
2023/01/05 09:31:50;;;;;;;10.27;2.20;;;12.00;78.20;;;;;;5040656;28;20513;-64
2023/01/05 09:34:18;;;;;;;14.87;2.53;;;12.00;78.20;;;;;;5044131;28;20540;-65
2023/01/05 09:36:46;;;;;;;12.67;2.67;;;12.00;78.20;;;;;;5041859;28;20475;-65
2023/01/05 09:39:14;;;;;;;18.20;2.63;;;12.00;78.20;;;;;;5043129;28;20463;-65
2023/01/05 09:41:46;;;;;;;14.00;2.40;;;12.00;78.20;;;;;;5040686;28;20992;-65
2023/01/05 09:44:25;;;;;;;14.63;3.13;;;12.00;78.20;;;;;;5042752;28;20899;-66
2023/01/05 09:46:59;;;;;;;10.67;2.77;;;12.00;78.30;;;;;;5039898;28;21026;-65
2023/01/05 09:49:29;;;;;;;17.23;2.80;;;12.10;78.30;;;;;;5039664;28;20474;-65
2023/01/05 09:52:01;;;;;;;10.70;2.13;;;12.10;78.40;;;;;;5041609;28;20864;-66
2023/01/05 09:54:33;;;;;;;12.37;2.63;;;12.10;78.40;;;;;;5042747;28;20570;-65
2023/01/05 09:57:03;;;;;;;11.37;2.30;;;12.10;78.30;;;;;;5043221;28;20533;-65
2023/01/05 09:59:40;;;;;;;16.40;3.23;;;12.10;78.40;;;;;;5040440;28;20843;-64
2023/01/05 10:02:18;;;;;;;10.30;2.20;;;12.10;78.40;;;;;;5041168;28;20517;-66
2023/01/05 10:04:47;;;;;;;13.00;2.37;;;12.10;78.50;;;;;;5040564;28;20510;-65
2023/01/05 10:07:25;;;;;;;11.53;2.50;;;12.20;78.40;;;;;;5038339;28;20470;-66
2023/01/05 10:09:54;;;;;;;19.50;2.70;;;12.20;78.40;;;;;;5042777;28;20517;-66
2023/01/05 10:15:16;;;;;;;13.83;3.10;;;12.20;78.20;;;;;;5041295;28;20491;-65
2023/01/05 10:17:45;;;;;;;13.57;2.70;;;12.20;78.30;;;;;;5041392;28;20467;-64
2023/01/05 10:20:19;;;;;;;18.73;2.43;;;12.20;78.20;;;;;;5043183;28;20463;-64
2023/01/05 10:23:01;;;;;;;11.33;2.50;;;12.20;78.30;;;;;;5038986;28;21812;-65
2023/01/05 10:25:38;;;;;;;12.93;2.70;;;12.20;78.30;;;;;;5041439;28;20571;-66
2023/01/05 10:28:23;;;;;;;14.87;2.57;;;12.20;78.20;;;;;;5038709;28;20462;-65
2023/01/05 10:30:57;;;;;;;17.43;2.67;;;12.20;78.20;;;;;;5038843;28;20458;-65
2023/01/05 10:33:41;;;;;;;14.13;3.03;;;12.20;78.20;;;;;;5041498;28;20479;-65
2023/01/05 10:36:35;;;;;;;14.20;2.27;;;12.20;78.10;;;;;;5040911;28;20824;-64
2023/01/05 10:39:35;;;;;;;7.53;1.90;;;12.20;78.30;;;;;;5040939;28;21075;-66
2023/01/05 10:42:09;;;;;;;9.10;2.00;;;12.20;78.30;;;;;;5042469;28;20456;-64
2023/01/05 10:44:55;;;;;;;12.50;2.07;;;12.20;78.20;;;;;;5042525;28;20489;-65
2023/01/05 10:47:25;;;;;;;18.00;2.60;;;12.20;78.20;;;;;;5041618;28;20459;-65
2023/01/05 10:49:54;;;;;;;16.40;2.87;;;12.20;78.10;;;;;;5043966;28;20447;-66
2023/01/05 10:52:23;;;;;;;7.73;1.93;;;12.20;78.20;;;;;;5041918;28;20451;-65
2023/01/05 10:54:55;;;;;;;11.20;2.23;;;12.30;78.20;;;;;;5041456;28;20491;-65
2023/01/05 10:57:40;;;;;;;10.90;2.20;;;12.20;78.20;;;;;;5043745;28;20470;-65
2023/01/05 11:00:12;;;;;;;11.63;2.63;;;12.30;78.20;;;;;;5043293;28;20467;-65
2023/01/05 11:02:42;;;;;;;7.60;2.20;;;12.30;78.30;;;;;;5042800;28;20442;-64
2023/01/05 11:05:27;;;;;;;15.40;2.23;;;12.30;78.20;;;;;;5042083;28;20498;-65
2023/01/05 11:07:58;;;;;;;12.23;2.10;;;12.30;78.20;;;;;;5042497;28;20450;-65
2023/01/05 11:10:30;;;;;;;11.97;2.27;;;12.30;78.20;;;;;;5043009;28;20505;-66
2023/01/05 11:13:03;;;;;;;10.20;2.63;;;12.30;78.30;;;;;;5040862;28;20482;-66
2023/01/05 11:15:33;;;;;;;12.90;2.40;;;12.30;78.30;;;;;;5041216;28;21461;-65
2023/01/05 11:18:02;;;;;;;7.00;2.10;;;12.30;78.30;;;;;;5042755;28;20451;-66
2023/01/05 11:20:31;;;;;;;15.50;2.80;;;12.30;78.30;;;;;;5041917;28;20513;-65
2023/01/05 11:22:59;;;;;;;18.10;2.90;;;12.30;78.30;;;;;;5041949;28;20582;-66
2023/01/05 11:25:29;;;;;;;18.90;2.60;;;12.30;78.30;;;;;;5041828;28;20541;-66
2023/01/05 11:28:11;;;;;;;11.50;2.57;;;12.30;78.30;;;;;;5041298;28;21603;-66
2023/01/05 11:30:46;;;;;;;11.43;2.50;;;12.30;78.40;;;;;;5041965;28;20446;-66
2023/01/05 11:33:24;;;;;;;16.63;3.27;;;12.40;78.30;;;;;;5042413;28;20544;-66
2023/01/05 11:35:55;;;;;;;17.73;4.17;;;12.40;78.20;;;;;;5042583;28;20470;-65
2023/01/05 11:38:26;;;;;;;12.30;2.33;;;12.40;78.20;;;;;;5042911;28;21026;-65
2023/01/05 11:40:55;;;;;;;16.53;2.70;;;12.40;78.00;;;;;;5042214;28;20501;-64
2023/01/05 11:43:26;;;;;;;12.00;3.20;;;12.40;78.00;;;;;;5041330;28;21238;-66
2023/01/05 11:45:58;;;;;;;16.13;3.03;;;12.40;78.00;;;;;;5040966;28;20463;-64
2023/01/05 11:48:28;;;;;;;9.30;2.47;;;12.40;78.00;;;;;;5041438;28;20462;-66
2023/01/05 11:50:58;;;;;;;20.70;2.70;;;12.40;78.10;;;;;;5041026;28;20459;-65
2023/01/05 11:53:36;;;;;;;12.77;2.90;;;12.50;78.20;;;;;;5039881;28;21041;-64
2023/01/05 11:56:17;;;;;;;10.33;2.30;;;12.60;78.30;;;;;;5042656;28;20983;-65
2023/01/05 11:58:46;;;;;;;10.10;1.90;;;12.70;78.10;;;;;;5038822;28;21290;-65
2023/01/05 12:01:58;;;;;;;12.70;2.20;;;12.80;77.90;;;;;;5037990;28;20455;-65
2023/01/05 12:04:38;;;;;;;12.60;2.57;;;12.80;77.70;;;;;;5038228;28;20497;-64
2023/01/05 12:07:24;;;;;;;15.83;2.73;;;12.90;77.50;;;;;;5041719;28;20467;-65
2023/01/05 12:09:59;;;;;;;15.63;2.20;;;12.90;77.40;;;;;;5045861;28;20865;-64
2023/01/05 12:12:40;;;;;;;14.47;3.47;;;12.90;77.30;;;;;;5042639;28;20534;-64
2023/01/05 12:15:38;;;;;;;22.97;3.57;;;13.00;77.30;;;;;;5041230;28;20547;-64
2023/01/05 12:18:20;;;;;;;12.40;2.67;;;13.00;77.10;;;;;;5043529;28;20838;-64
2023/01/05 12:21:10;;;;;;;16.10;2.90;;;13.00;77.00;;;;;;5042970;28;20455;-64
2023/01/05 12:23:52;;;;;;;15.60;2.43;;;13.00;76.80;;;;;;5044654;28;20455;-63
2023/01/05 12:26:26;;;;;;;11.03;3.10;;;13.00;76.80;;;;;;5043566;28;20459;-64
2023/01/05 12:29:12;;;;;;;15.80;2.83;;;13.00;77.10;;;;;;5043814;28;20704;-64
2023/01/05 12:32:16;;;;;;;14.80;3.40;;;13.00;76.80;;;;;;5044642;28;20474;-64
2023/01/05 12:35:36;;;;;;;13.63;2.73;;;13.00;76.70;;;;;;5042743;28;20494;-64
2023/01/05 12:38:24;;;;;;;15.00;2.73;;;13.10;76.50;;;;;;5044060;28;20545;-64
2023/01/05 12:41:11;;;;;;;16.53;3.37;;;13.00;76.40;;;;;;5043329;28;20496;-64
2023/01/05 12:43:52;;;;;;;17.87;2.77;;;13.00;76.40;;;;;;5043609;28;20488;-64
2023/01/05 12:46:31;;;;;;;14.50;3.53;;;13.10;76.30;;;;;;5045375;28;20506;-64
2023/01/05 12:49:03;;;;;;;18.70;3.70;;;13.00;76.30;;;;;;5044620;28;20439;-64
2023/01/05 12:51:35;;;;;;;13.10;2.80;;;13.00;76.40;;;;;;5044694;28;21233;-63
2023/01/05 12:54:09;;;;;;;12.03;2.73;;;13.00;76.20;;;;;;5043151;28;20491;-64
2023/01/05 12:56:43;;;;;;;16.60;4.33;;;13.00;76.40;;;;;;5045818;28;20520;-63
2023/01/05 12:59:17;;;;;;;12.60;3.10;;;13.00;76.30;;;;;;5044808;28;20460;-64
2023/01/05 13:01:53;;;;;;;16.93;2.97;;;13.00;76.20;;;;;;5044857;28;20459;-64
2023/01/05 13:04:38;;;;;;;12.73;3.30;;;13.00;76.20;;;;;;5044470;28;20870;-65
2023/01/05 13:07:20;;;;;;;14.70;3.17;;;13.10;76.20;;;;;;5042749;28;20467;-64
2023/01/05 13:09:57;;;;;;;15.40;3.70;;;13.10;76.10;;;;;;5044755;28;20857;-64
2023/01/05 13:12:31;;;;;;;11.60;2.90;;;13.10;76.10;;;;;;5044012;28;20470;-63
2023/01/05 13:15:07;;;;;;;16.80;2.80;;;13.10;75.90;;;;;;5043508;28;20486;-64
2023/01/05 13:17:41;;;;;;;15.67;3.07;;;13.10;76.00;;;;;;5043802;28;20508;-64
2023/01/05 13:20:23;;;;;;;15.40;3.30;;;13.10;75.70;;;;;;5044403;28;20462;-64
2023/01/05 13:22:55;;;;;;;14.07;2.67;;;13.10;75.70;;;;;;5041983;28;20469;-64
2023/01/05 13:25:27;;;;;;;15.87;2.80;;;13.20;75.50;;;;;;5044208;28;20487;-64
2023/01/05 13:27:56;;;;;;;16.53;3.50;;;13.10;75.50;;;;;;5044699;28;20516;-63
2023/01/05 13:30:27;;;;;;;14.77;3.37;;;13.10;75.60;;;;;;5043448;28;20460;-65
2023/01/05 13:33:17;;;;;;;14.80;3.23;;;13.10;75.40;;;;;;5043730;28;20464;-64
2023/01/05 13:36:02;;;;;;;16.10;3.00;;;13.10;75.40;;;;;;5042844;28;20543;-64
2023/01/05 13:39:03;;;;;;;16.47;3.00;;;13.10;75.20;;;;;;5043593;28;20878;-64
2023/01/05 13:42:00;;;;;;;17.63;3.57;;;13.10;75.20;;;;;;5043814;28;21055;-64